Time;durP1;ratioP1;P1;durP2;ratioP2;P2;SDS_P1;SDS_P2;PMS_P1;PMS_P2;Temp;Humidity;BMP_temperature;BMP_pressure;BME280_temperature;BME280_humidity;BME280_pressure;Samples;Min_cycle;Max_cycle;Signal;HPM_P1;HPM_P2
2022/01/14 00:00:38;;;;;;;;;;;;;;;0.15;100.00;101936.97;8205089;28;20346;-82
2022/01/14 00:04:39;;;;;;;;;;;;;;;0.22;100.00;101940.91;8216026;28;20554;-80
2022/01/14 00:08:41;;;;;;;;;;;;;;;0.26;100.00;101931.50;8213581;28;20037;-80
2022/01/14 00:12:51;;;;;;;;;;;;;;;0.27;100.00;101921.50;8199357;28;19922;-80
2022/01/14 00:16:52;;;;;;;;;;;;;;;0.25;100.00;101916.22;8212763;28;19989;-80
2022/01/14 00:20:54;;;;;;;;;;;;;;;0.14;100.00;101913.56;8197718;28;19973;-80
2022/01/14 00:33:17;;;;;;;;;;;;;;;-0.10;100.00;101903.81;8184796;28;19931;-80
2022/01/14 00:37:18;;;;;;;;;;;;;;;-0.19;100.00;101904.59;8170559;28;19934;-80
2022/01/14 00:41:20;;;;;;;;;;;;;;;-0.30;100.00;101902.78;8194231;28;19935;-80
2022/01/14 00:45:21;;;;;;;;;;;;;;;-0.28;100.00;101899.94;8196335;28;19926;-80
2022/01/14 00:49:23;;;;;;;;;;;;;;;-0.29;100.00;101892.81;8191530;28;19954;-80
2022/01/14 00:53:26;;;;;;;;;;;;;;;-0.39;100.00;101889.13;8199531;28;19969;-80
2022/01/14 00:59:14;;;;;;;;;;;;;;;-0.34;100.00;101900.47;8182792;28;20009;-80
2022/01/14 01:01:53;;;;;;;;;;;;;;;-0.37;100.00;101890.72;8195769;28;19922;-80
2022/01/14 01:05:54;;;;;;;;;;;;;;;-0.37;100.00;101887.16;8194469;28;20006;-79
2022/01/14 01:09:56;;;;;;;;;;;;;;;-0.31;100.00;101886.66;8197874;28;19988;-79
2022/01/14 01:14:12;;;;;;;;;;;;;;;-0.22;100.00;101896.72;8194485;28;19930;-79
2022/01/14 01:18:13;;;;;;;;;;;;;;;-0.19;100.00;101899.16;8198177;28;19927;-80
2022/01/14 01:22:15;;;;;;;;;;;;;;;-0.13;100.00;101895.94;8196332;28;20454;-81
2022/01/14 01:26:38;;;;;;;;;;;;;;;-0.09;100.00;101892.00;8154971;28;20411;-80
2022/01/14 01:30:52;;;;;;;;;;;;;;;-0.16;100.00;101890.78;8170778;28;19964;-80
2022/01/14 01:34:53;;;;;;;;;;;;;;;-0.20;100.00;101889.34;8184462;28;20014;-80
2022/01/14 01:38:55;;;;;;;;;;;;;;;-0.14;100.00;101891.53;8192192;28;19982;-79
2022/01/14 01:43:00;;;;;;;;;;;;;;;-0.11;100.00;101888.56;8193893;28;19974;-81
2022/01/14 01:47:02;;;;;;;;;;;;;;;-0.15;100.00;101878.09;8194145;28;20455;-80
2022/01/14 01:51:04;;;;;;;;;;;;;;;-0.14;100.00;101882.53;8199859;28;19985;-79
2022/01/14 01:55:06;;;;;;;;;;;;;;;-0.11;100.00;101879.56;8182661;28;19923;-81
2022/01/14 01:59:09;;;;;;;;;;;;;;;-0.15;100.00;101865.44;8194551;28;19930;-80
2022/01/14 02:03:12;;;;;;;;;;;;;;;-0.28;100.00;101860.16;8154636;28;19997;-78
2022/01/14 02:07:13;;;;;;;;;;;;;;;-0.27;100.00;101864.59;8172015;28;19926;-79
2022/01/14 02:11:20;;;;;;;;;;;;;;;-0.27;100.00;101858.31;8181304;28;19926;-80
2022/01/14 02:22:10;;;;;;;;;;;;;;;-0.26;100.00;101855.47;8199470;28;19934;-79
2022/01/14 02:28:20;;;;;;;;;;;;;;;-0.19;100.00;101853.09;8166154;28;19922;-79
2022/01/14 02:32:22;;;;;;;;;;;;;;;-0.26;100.00;101849.22;8192791;28;19926;-78
2022/01/14 02:36:25;;;;;;;;;;;;;;;-0.38;100.00;101848.38;8170827;28;19977;-79
2022/01/14 02:40:26;;;;;;;;;;;;;;;-0.43;100.00;101847.06;8193283;28;19945;-79
2022/01/14 02:44:30;;;;;;;;;;;;;;;-0.42;100.00;101851.47;8187943;28;19988;-79
2022/01/14 02:48:31;;;;;;;;;;;;;;;-0.38;100.00;101844.81;8183904;28;20645;-79
2022/01/14 02:52:55;;;;;;;;;;;;;;;-0.37;100.00;101841.13;8193200;28;19933;-80
2022/01/14 02:56:57;;;;;;;;;;;;;;;-0.26;100.00;101835.66;8189704;28;19926;-79
2022/01/14 03:01:00;;;;;;;;;;;;;;;-0.22;100.00;101841.66;8191691;28;19978;-79
2022/01/14 03:05:03;;;;;;;;;;;;;;;-0.27;100.00;101839.34;8164113;28;19922;-79
2022/01/14 03:09:05;;;;;;;;;;;;;;;-0.30;100.00;101836.88;8167248;28;19980;-79
2022/01/14 03:13:06;;;;;;;;;;;;;;;-0.35;100.00;101831.03;8187238;28;19927;-80
2022/01/14 03:17:08;;;;;;;;;;;;;;;-0.52;100.00;101825.16;8183148;28;19922;-79
2022/01/14 03:21:11;;;;;;;;;;;;;;;-0.48;100.00;101831.16;8194655;28;19981;-79
2022/01/14 03:29:32;;;;;;;;;;;;;;;-0.72;100.00;101836.78;8193427;28;19974;-79
2022/01/14 03:33:35;;;;;;;;;;;;;;;-0.66;100.00;101841.69;8182493;28;19969;-78
2022/01/14 03:37:37;;;;;;;;;;;;;;;-0.67;100.00;101825.59;8181022;28;19977;-78
2022/01/14 03:41:38;;;;;;;;;;;;;;;-0.69;100.00;101825.69;8191868;28;19973;-78
2022/01/14 03:45:40;;;;;;;;;;;;;;;-0.64;100.00;101818.06;8186593;28;19926;-79
2022/01/14 03:49:41;;;;;;;;;;;;;;;-0.63;100.00;101811.66;8182210;28;19926;-79
2022/01/14 03:53:45;;;;;;;;;;;;;;;-0.76;100.00;101801.00;8184030;28;19927;-78
2022/01/14 03:57:47;;;;;;;;;;;;;;;-0.86;100.00;101810.00;8191388;28;19977;-79
2022/01/14 04:01:48;;;;;;;;;;;;;;;-0.84;100.00;101808.88;8201184;28;20347;-79
2022/01/14 04:05:50;;;;;;;;;;;;;;;-0.78;100.00;101818.34;8197366;28;19969;-78
2022/01/14 04:09:51;;;;;;;;;;;;;;;-0.80;100.00;101812.22;8196590;28;19930;-79
2022/01/14 04:13:55;;;;;;;;;;;;;;;-0.82;100.00;101798.78;8180734;28;19980;-78
2022/01/14 04:17:57;;;;;;;;;;;;;;;-0.84;100.00;101792.63;8195148;28;20335;-78
2022/01/14 04:21:59;;;;;;;;;;;;;;;-0.86;100.00;101793.75;8186250;28;19993;-79
2022/01/14 04:26:00;;;;;;;;;;;;;;;-0.82;100.00;101782.56;8188625;28;19950;-79
2022/01/14 04:30:02;;;;;;;;;;;;;;;-0.85;100.00;101774.69;8202331;28;20391;-79
2022/01/14 04:34:03;;;;;;;;;;;;;;;-0.86;100.00;101778.41;8189665;28;20451;-79
2022/01/14 04:38:04;;;;;;;;;;;;;;;-1.00;100.00;101771.41;8164552;28;19927;-78
2022/01/14 04:42:06;;;;;;;;;;;;;;;-1.08;100.00;101779.28;8207045;28;20340;-79
2022/01/14 04:50:09;;;;;;;;;;;;;;;-1.05;100.00;101781.75;8187880;28;19927;-78
2022/01/14 04:54:10;;;;;;;;;;;;;;;-1.14;100.00;101768.97;8175934;28;19953;-79
2022/01/14 04:58:12;;;;;;;;;;;;;;;-1.21;100.00;101773.19;8194892;28;19954;-79
2022/01/14 05:02:14;;;;;;;;;;;;;;;-1.33;100.00;101757.97;8191949;28;20018;-79
2022/01/14 05:06:17;;;;;;;;;;;;;;;-1.21;100.00;101740.72;8185364;28;19922;-78
2022/01/14 05:14:20;;;;;;;;;;;;;;;-1.41;100.00;101745.91;8190324;28;19926;-77
2022/01/14 05:18:25;;;;;;;;;;;;;;;-1.32;100.00;101755.13;8195860;28;20477;-79
2022/01/14 05:22:27;;;;;;;;;;;;;;;-1.26;100.00;101745.63;8178025;28;19926;-78
2022/01/14 05:26:28;;;;;;;;;;;;;;;-1.28;100.00;101739.47;8174727;28;19981;-78
2022/01/14 05:30:30;;;;;;;;;;;;;;;-1.45;100.00;101736.31;8181072;28;19949;-78
2022/01/14 05:34:32;;;;;;;;;;;;;;;-1.42;100.00;101738.78;8188110;28;19922;-78
2022/01/14 05:38:34;;;;;;;;;;;;;;;-1.41;100.00;101728.81;8191450;28;20038;-81
2022/01/14 05:42:36;;;;;;;;;;;;;;;-1.40;100.00;101731.41;8192012;28;20434;-79
2022/01/14 05:46:38;;;;;;;;;;;;;;;-1.33;100.00;101733.63;8183842;28;19981;-78
2022/01/14 05:50:39;;;;;;;;;;;;;;;-1.29;100.00;101719.69;8182735;28;19985;-77
2022/01/14 05:54:41;;;;;;;;;;;;;;;-1.24;100.00;101722.03;8193535;28;19931;-77
2022/01/14 05:58:42;;;;;;;;;;;;;;;-1.18;100.00;101722.38;8176855;28;19926;-78
2022/01/14 06:02:44;;;;;;;;;;;;;;;-1.16;100.00;101727.66;8193957;28;19922;-78
2022/01/14 06:06:46;;;;;;;;;;;;;;;-1.18;100.00;101729.66;8191612;28;19922;-80
2022/01/14 06:10:47;;;;;;;;;;;;;;;-1.15;100.00;101735.66;8158206;28;19926;-77
2022/01/14 06:14:49;;;;;;;;;;;;;;;-1.13;100.00;101727.44;8186573;28;19935;-78
2022/01/14 06:18:50;;;;;;;;;;;;;;;-1.23;100.00;101731.88;8188936;28;19926;-79
2022/01/14 06:22:52;;;;;;;;;;;;;;;-1.33;100.00;101739.03;8171307;28;19927;-77
2022/01/14 06:26:53;;;;;;;;;;;;;;;-1.40;100.00;101746.75;8183567;28;19926;-78
2022/01/14 06:30:54;;;;;;;;;;;;;;;-1.42;100.00;101755.00;8175164;28;19926;-79
2022/01/14 06:34:56;;;;;;;;;;;;;;;-1.41;100.00;101759.41;8197226;28;19930;-78
2022/01/14 06:38:57;;;;;;;;;;;;;;;-1.35;100.00;101758.06;8190327;28;19930;-81
2022/01/14 06:43:00;;;;;;;;;;;;;;;-1.30;100.00;101765.81;8186641;28;19981;-80
2022/01/14 06:47:01;;;;;;;;;;;;;;;-1.30;100.00;101763.97;8192003;28;21788;-78
2022/01/14 06:51:02;;;;;;;;;;;;;;;-1.29;100.00;101767.53;8187120;28;19981;-78
2022/01/14 06:55:04;;;;;;;;;;;;;;;-1.19;100.00;101763.06;8197967;28;19977;-78
2022/01/14 06:59:06;;;;;;;;;;;;;;;-1.16;100.00;101760.13;8177305;28;19985;-79
2022/01/14 07:03:07;;;;;;;;;;;;;;;-1.19;100.00;101761.25;8194392;28;20361;-78
2022/01/14 07:07:08;;;;;;;;;;;;;;;-1.15;100.00;101762.72;8171043;28;19954;-81
2022/01/14 07:11:11;;;;;;;;;;;;;;;-1.10;100.00;101761.47;8188391;28;20446;-78
2022/01/14 07:15:13;;;;;;;;;;;;;;;-1.06;100.00;101760.25;8180248;28;19933;-78
2022/01/14 07:19:16;;;;;;;;;;;;;;;-1.20;100.00;101755.94;8191122;28;19927;-79
2022/01/14 07:23:18;;;;;;;;;;;;;;;-1.22;100.00;101763.31;8182721;28;19990;-78
2022/01/14 07:27:19;;;;;;;;;;;;;;;-1.25;100.00;101764.47;8167810;28;19973;-79
2022/01/14 07:31:22;;;;;;;;;;;;;;;-1.27;100.00;101766.44;8202692;28;19922;-78
2022/01/14 07:35:25;;;;;;;;;;;;;;;-1.31;100.00;101774.91;8203052;28;20442;-79
2022/01/14 07:39:27;;;;;;;;;;;;;;;-1.20;100.00;101766.78;8197407;28;20009;-78
2022/01/14 07:43:29;;;;;;;;;;;;;;;-1.15;100.00;101780.78;8198114;28;20380;-79
2022/01/14 07:47:32;;;;;;;;;;;;;;;-1.25;100.00;101772.56;8195039;28;19926;-79
2022/01/14 07:51:35;;;;;;;;;;;;;;;-1.33;100.00;101776.88;8176181;28;19954;-78
2022/01/14 07:55:37;;;;;;;;;;;;;;;-1.33;100.00;101776.88;8165205;28;20407;-78
2022/01/14 07:59:40;;;;;;;;;;;;;;;-1.24;100.00;101773.44;8199133;28;20021;-78
2022/01/14 08:03:42;;;;;;;;;;;;;;;-1.24;100.00;101778.84;8196689;28;19930;-79
2022/01/14 08:07:45;;;;;;;;;;;;;;;-1.21;100.00;101773.19;8194392;28;19929;-78
2022/01/14 08:11:46;;;;;;;;;;;;;;;-1.24;100.00;101763.47;8186911;28;19922;-78
2022/01/14 08:15:48;;;;;;;;;;;;;;;-1.27;100.00;101774.53;8194324;28;19968;-79
2022/01/14 08:19:50;;;;;;;;;;;;;;;-1.18;100.00;101789.16;8210762;28;19964;-79
2022/01/14 08:23:52;;;;;;;;;;;;;;;-1.11;100.00;101789.50;8195379;28;19986;-79
2022/01/14 08:27:53;;;;;;;;;;;;;;;-1.22;100.00;101791.25;8191944;28;19926;-79
2022/01/14 08:31:55;;;;;;;;;;;;;;;-1.18;100.00;101789.16;8185443;28;20443;-79
2022/01/14 08:35:56;;;;;;;;;;;;;;;-1.05;100.00;101789.84;8195075;28;19949;-79
2022/01/14 08:39:58;;;;;;;;;;;;;;;-1.01;100.00;101791.34;8191861;28;20407;-79
2022/01/14 08:44:00;;;;;;;;;;;;;;;-0.96;100.00;101796.38;8197189;28;19923;-79
2022/01/14 08:48:22;;;;;;;;;;;;;;;-0.99;100.00;101789.34;8183037;29;19934;-79
2022/01/14 08:52:50;;;;;;;;;;;;;;;-0.93;100.00;101788.84;8194025;28;19929;-81
2022/01/14 08:56:51;;;;;;;;;;;;;;;-0.80;100.00;101782.44;8207068;28;19973;-78
2022/01/14 09:00:53;;;;;;;;;;;;;;;-0.87;100.00;101773.94;8178717;28;20026;-81
2022/01/14 09:04:55;;;;;;;;;;;;;;;-0.74;100.00;101760.28;8201550;28;19926;-78
2022/01/14 09:08:57;;;;;;;;;;;;;;;-0.66;100.00;101765.88;8199817;28;19923;-79
2022/01/14 09:12:58;;;;;;;;;;;;;;;-0.73;100.00;101772.81;8166155;28;20355;-79
2022/01/14 09:17:00;;;;;;;;;;;;;;;-0.72;100.00;101769.97;8176457;28;19926;-78
2022/01/14 09:21:02;;;;;;;;;;;;;;;-0.55;100.00;101771.25;8193743;28;19923;-79
2022/01/14 09:25:05;;;;;;;;;;;;;;;-0.46;100.00;101775.03;8193564;28;20328;-78
2022/01/14 09:29:08;;;;;;;;;;;;;;;-0.34;100.00;101773.13;8197661;28;20500;-79
2022/01/14 09:33:10;;;;;;;;;;;;;;;-0.44;100.00;101770.34;8177937;28;19926;-78
2022/01/14 09:37:12;;;;;;;;;;;;;;;-0.47;100.00;101757.94;8179622;28;19992;-79
2022/01/14 09:41:14;;;;;;;;;;;;;;;-0.40;100.00;101760.13;8177763;28;19945;-79
2022/01/14 09:45:17;;;;;;;;;;;;;;;-0.25;100.00;101770.50;8197775;28;19926;-79
2022/01/14 09:49:19;;;;;;;;;;;;;;;-0.17;100.00;101769.84;8189851;28;19926;-79
2022/01/14 09:53:21;;;;;;;;;;;;;;;-0.22;100.00;101787.47;8191634;28;19950;-78
2022/01/14 09:57:22;;;;;;;;;;;;;;;-0.21;100.00;101770.22;8189672;28;20383;-79
2022/01/14 10:01:24;;;;;;;;;;;;;;;-0.14;100.00;101772.28;8199236;28;19923;-79
2022/01/14 10:05:35;;;;;;;;;;;;;;;-0.05;100.00;101774.19;8185766;28;20021;-78
2022/01/14 10:09:44;;;;;;;;;;;;;;;0.04;100.00;101777.13;8188080;28;20032;-79
2022/01/14 10:13:47;;;;;;;;;;;;;;;0.02;100.00;101779.09;8158095;28;19990;-79
2022/01/14 10:17:48;;;;;;;;;;;;;;;-0.26;100.00;101770.63;8190145;28;20396;-79
2022/01/14 10:21:53;;;;;;;;;;;;;;;-0.14;100.00;101772.28;8178919;28;19922;-79
2022/01/14 10:25:56;;;;;;;;;;;;;;;-0.06;100.00;101772.50;8177856;28;19930;-79
2022/01/14 10:30:06;;;;;;;;;;;;;;;0.05;100.00;101778.81;8192489;28;19926;-79
2022/01/14 10:34:15;;;;;;;;;;;;;;;0.17;100.00;101778.59;8168367;28;19958;-79
2022/01/14 10:38:19;;;;;;;;;;;;;;;0.33;100.00;101769.16;8188351;28;20384;-79
2022/01/14 10:42:34;;;;;;;;;;;;;;;0.47;100.00;101760.63;8195110;28;20002;-79
2022/01/14 10:46:35;;;;;;;;;;;;;;;0.55;100.00;101755.38;8197391;28;19923;-80
2022/01/14 10:50:36;;;;;;;;;;;;;;;0.47;100.00;101751.63;8182196;28;19980;-79
2022/01/14 10:54:39;;;;;;;;;;;;;;;0.58;100.00;101748.81;8198232;28;20372;-79
2022/01/14 10:58:43;;;;;;;;;;;;;;;0.66;100.00;101749.00;8178862;28;19926;-79
2022/01/14 11:02:48;;;;;;;;;;;;;;;0.73;100.00;101741.16;8194561;28;20388;-79
2022/01/14 11:06:50;;;;;;;;;;;;;;;0.90;100.00;101751.34;8187036;28;20303;-80
2022/01/14 11:10:52;;;;;;;;;;;;;;;0.98;100.00;101742.50;8198920;28;19926;-79
2022/01/14 11:14:53;;;;;;;;;;;;;;;0.93;100.00;101736.66;8207500;28;19922;-79
2022/01/14 11:19:00;;;;;;;;;;;;;;;1.11;100.00;101724.09;8208832;28;19961;-78
2022/01/14 11:23:14;;;;;;;;;;;;;;;1.15;100.00;101706.50;8195088;28;19958;-79
2022/01/14 11:27:24;;;;;;;;;;;;;;;1.01;100.00;101710.53;8193165;28;19930;-80
2022/01/14 11:31:27;;;;;;;;;;;;;;;1.10;100.00;101717.81;8181137;28;19927;-81
2022/01/14 11:35:30;;;;;;;;;;;;;;;1.10;100.00;101706.06;8174304;28;19945;-80
2022/01/14 11:39:36;;;;;;;;;;;;;;;1.15;100.00;101698.38;8182383;28;19934;-81
2022/01/14 11:43:39;;;;;;;;;;;;;;;1.19;100.00;101693.50;8195555;28;20001;-81
2022/01/14 11:47:43;;;;;;;;;;;;;;;1.16;100.00;101678.38;8173913;28;19926;-81
2022/01/14 11:51:59;;;;;;;;;;;;;;;1.35;100.00;101678.34;8202963;28;19922;-81
2022/01/14 11:56:00;;;;;;;;;;;;;;;1.39;100.00;101668.06;8206457;28;20466;-81
2022/01/14 12:00:02;;;;;;;;;;;;;;;1.55;100.00;101662.91;8195031;28;20057;-80
2022/01/14 12:04:05;;;;;;;;;;;;;;;1.30;100.00;101649.91;8203702;28;19930;-81
2022/01/14 12:08:10;;;;;;;;;;;;;;;1.03;100.00;101656.06;8205418;28;20387;-80
2022/01/14 12:12:30;;;;;;;;;;;;;;;0.96;100.00;101644.94;8217267;28;19927;-81
2022/01/14 12:20:47;;;;;;;;;;;;;;;0.99;100.00;101635.66;8190436;28;20447;-81
2022/01/14 12:24:50;;;;;;;;;;;;;;;0.91;100.00;101629.06;8198772;28;20037;-81
2022/01/14 12:29:09;;;;;;;;;;;;;;;0.94;100.00;101618.91;8201847;28;20046;-80
2022/01/14 12:33:34;;;;;;;;;;;;;;;1.09;100.00;101620.19;8187568;28;19923;-80
2022/01/14 12:37:46;;;;;;;;;;;;;;;1.25;100.00;101623.19;8181508;28;19923;-78
2022/01/14 12:41:52;;;;;;;;;;;;;;;1.25;100.00;101614.16;8181582;28;20446;-81
2022/01/14 12:46:13;;;;;;;;;;;;;;;1.28;100.00;101612.03;8174894;28;19933;-81
2022/01/14 12:50:18;;;;;;;;;;;;;;;1.34;100.00;101616.91;8178474;28;20423;-79
2022/01/14 12:54:20;;;;;;;;;;;;;;;1.26;100.00;101607.75;8188357;28;19926;-78
2022/01/14 12:58:21;;;;;;;;;;;;;;;1.23;100.00;101608.91;8196941;28;19947;-79
2022/01/14 13:02:24;;;;;;;;;;;;;;;1.27;100.00;101599.44;8169306;28;19931;-79
2022/01/14 13:06:27;;;;;;;;;;;;;;;1.26;100.00;101586.88;8195357;28;19933;-78
2022/01/14 13:10:30;;;;;;;;;;;;;;;1.36;100.00;101592.28;8203245;28;19922;-78
2022/01/14 13:14:45;;;;;;;;;;;;;;;1.36;100.00;101584.13;8195559;28;19934;-79
2022/01/14 13:18:48;;;;;;;;;;;;;;;1.43;100.00;101577.13;8197174;28;19926;-78
2022/01/14 13:22:50;;;;;;;;;;;;;;;1.25;100.00;101579.75;8195007;28;19926;-78
2022/01/14 13:27:00;;;;;;;;;;;;;;;0.99;100.00;101581.34;8193567;28;19930;-78
2022/01/14 13:31:06;;;;;;;;;;;;;;;0.95;100.00;101574.47;8197486;28;21839;-78
2022/01/14 13:35:09;;;;;;;;;;;;;;;0.80;100.00;101572.19;8179605;28;19923;-78
2022/01/14 13:39:11;;;;;;;;;;;;;;;0.78;100.00;101570.66;8184730;28;19990;-79
2022/01/14 13:43:21;;;;;;;;;;;;;;;0.78;100.00;101567.94;8196655;28;19930;-79
2022/01/14 13:47:25;;;;;;;;;;;;;;;0.86;100.00;101574.38;8197407;28;20029;-79
2022/01/14 13:51:32;;;;;;;;;;;;;;;0.68;100.00;101559.78;8187559;28;19954;-79
2022/01/14 13:55:35;;;;;;;;;;;;;;;0.73;100.00;101562.94;8190143;28;19926;-79
2022/01/14 13:59:37;;;;;;;;;;;;;;;0.90;100.00;101564.06;8192980;28;20358;-79
2022/01/14 14:03:46;;;;;;;;;;;;;;;0.92;100.00;101575.63;8183357;28;19997;-78
2022/01/14 14:07:49;;;;;;;;;;;;;;;0.90;100.00;101569.50;8166751;28;19933;-79
2022/01/14 14:12:08;;;;;;;;;;;;;;;0.94;100.00;101584.50;8184579;28;19986;-79
2022/01/14 14:16:25;;;;;;;;;;;;;;;0.95;100.00;101588.06;8198547;28;19997;-78
2022/01/14 14:20:29;;;;;;;;;;;;;;;0.69;100.00;101585.94;8201746;28;19930;-79
2022/01/14 14:24:38;;;;;;;;;;;;;;;0.67;100.00;101586.06;8198501;28;19923;-78
2022/01/14 14:28:41;;;;;;;;;;;;;;;0.75;100.00;101588.06;8166553;28;19926;-79
2022/01/14 14:32:42;;;;;;;;;;;;;;;0.74;100.00;101589.06;8176872;28;19930;-78
2022/01/14 14:36:46;;;;;;;;;;;;;;;0.84;100.00;101587.22;8192162;28;19926;-78
2022/01/14 14:40:50;;;;;;;;;;;;;;;0.77;100.00;101583.34;8195977;28;20380;-78
2022/01/14 14:44:52;;;;;;;;;;;;;;;0.67;100.00;101590.63;8170969;28;19990;-79
2022/01/14 14:48:53;;;;;;;;;;;;;;;0.62;100.00;101585.63;8190599;28;19931;-79
2022/01/14 14:52:55;;;;;;;;;;;;;;;0.58;100.00;101589.63;8195955;28;19923;-80
2022/01/14 14:57:00;;;;;;;;;;;;;;;0.49;100.00;101593.19;8193669;28;19930;-79
2022/01/14 15:01:02;;;;;;;;;;;;;;;0.42;100.00;101581.19;8188704;28;19926;-79
2022/01/14 15:05:04;;;;;;;;;;;;;;;0.37;100.00;101583.47;8192621;28;19926;-80
2022/01/14 15:09:06;;;;;;;;;;;;;;;0.32;100.00;101580.31;8192019;28;20682;-78
2022/01/14 15:13:09;;;;;;;;;;;;;;;0.26;100.00;101587.13;8172546;28;19931;-79
2022/01/14 15:18:10;;;;;;;;;;;;;;;0.40;100.00;101584.03;8181506;28;19923;-78
2022/01/14 15:21:41;;;;;;;;;;;;;;;0.52;100.00;101581.19;8190715;28;20005;-79
2022/01/14 15:25:43;;;;;;;;;;;;;;;0.56;100.00;101579.91;8196888;28;19950;-78
2022/01/14 15:29:47;;;;;;;;;;;;;;;0.57;100.00;101570.78;8181571;28;19930;-78
2022/01/14 15:33:49;;;;;;;;;;;;;;;0.57;100.00;101574.34;8180195;28;19927;-79
2022/01/14 15:37:52;;;;;;;;;;;;;;;0.54;100.00;101565.66;8174152;28;19977;-78
2022/01/14 15:42:13;;;;;;;;;;;;;;;0.33;100.00;101569.34;8179317;28;19931;-79
2022/01/14 15:46:17;;;;;;;;;;;;;;;0.32;100.00;101572.16;8184335;28;19926;-78
2022/01/14 15:50:20;;;;;;;;;;;;;;;0.33;100.00;101569.34;8191806;28;19958;-79
2022/01/14 15:54:46;;;;;;;;;;;;;;;0.39;100.00;101566.06;8192754;28;19918;-79
2022/01/14 15:58:48;;;;;;;;;;;;;;;0.41;100.00;101542.34;8186121;28;20372;-79
2022/01/14 16:02:49;;;;;;;;;;;;;;;0.49;100.00;101536.22;8184020;28;19930;-78
2022/01/14 16:06:51;;;;;;;;;;;;;;;0.57;100.00;101540.94;8187470;28;20447;-79
2022/01/14 16:10:52;;;;;;;;;;;;;;;0.53;100.00;101528.66;8192454;28;19981;-77
2022/01/14 16:14:53;;;;;;;;;;;;;;;0.53;100.00;101524.06;8192832;28;19958;-78
2022/01/14 16:18:55;;;;;;;;;;;;;;;0.58;100.00;101523.66;8193239;28;19932;-79
2022/01/14 16:22:56;;;;;;;;;;;;;;;0.60;100.00;101519.81;8193364;28;20046;-79
2022/01/14 16:26:58;;;;;;;;;;;;;;;0.55;100.00;101530.22;8192585;28;19926;-78
2022/01/14 16:30:59;;;;;;;;;;;;;;;0.59;100.00;101533.50;8179623;28;19930;-78
2022/01/14 16:35:02;;;;;;;;;;;;;;;0.74;100.00;101523.06;8200345;28;19922;-78
2022/01/14 16:39:05;;;;;;;;;;;;;;;0.81;100.00;101516.09;8205622;28;20017;-80
2022/01/14 16:43:07;;;;;;;;;;;;;;;0.78;100.00;101511.81;8201335;28;19980;-79
2022/01/14 16:47:08;;;;;;;;;;;;;;;0.76;100.00;101523.81;8199958;28;19923;-78
2022/01/14 16:51:11;;;;;;;;;;;;;;;0.69;100.00;101518.09;8173643;28;20214;-78
2022/01/14 16:55:12;;;;;;;;;;;;;;;0.78;100.00;101528.09;8191500;28;20391;-78
2022/01/14 16:59:14;;;;;;;;;;;;;;;0.83;100.00;101531.22;8186328;28;19931;-79
2022/01/14 17:03:15;;;;;;;;;;;;;;;0.85;100.00;101525.66;8189172;28;19926;-78
2022/01/14 17:07:17;;;;;;;;;;;;;;;0.79;100.00;101523.50;8181558;28;19926;-79
2022/01/14 17:11:19;;;;;;;;;;;;;;;0.74;100.00;101537.50;8191936;28;19954;-79
2022/01/14 17:15:20;;;;;;;;;;;;;;;0.74;100.00;101542.91;8198242;28;19926;-79
2022/01/14 17:19:23;;;;;;;;;;;;;;;0.50;100.00;101539.78;8194721;28;19930;-79
2022/01/14 17:23:24;;;;;;;;;;;;;;;0.28;100.00;101547.19;8190052;28;19949;-79
2022/01/14 17:27:28;;;;;;;;;;;;;;;0.28;100.00;101557.19;8193680;28;19933;-78
2022/01/14 17:31:29;;;;;;;;;;;;;;;0.37;100.00;101553.63;8188126;28;19926;-80
2022/01/14 17:35:31;;;;;;;;;;;;;;;0.40;100.00;101559.63;8207373;28;19922;-80
2022/01/14 17:39:37;;;;;;;;;;;;;;;0.43;100.00;101550.34;8197068;28;19922;-80
2022/01/14 17:43:43;;;;;;;;;;;;;;;0.42;100.00;101549.50;8165509;28;19934;-79
2022/01/14 17:47:44;;;;;;;;;;;;;;;0.44;100.00;101549.34;8199844;28;19926;-79
2022/01/14 17:51:46;;;;;;;;;;;;;;;0.44;100.00;101546.63;8201091;28;19926;-79
2022/01/14 17:55:48;;;;;;;;;;;;;;;0.46;100.00;101541.94;8183583;28;19930;-79
2022/01/14 17:59:49;;;;;;;;;;;;;;;0.50;100.00;101532.50;8195195;28;20352;-79
2022/01/14 18:03:51;;;;;;;;;;;;;;;0.45;100.00;101530.22;8199285;28;19997;-80
2022/01/14 18:07:52;;;;;;;;;;;;;;;0.38;100.00;101536.34;8180588;28;19933;-80
2022/01/14 18:12:04;;;;;;;;;;;;;;;0.35;100.00;101537.50;8195191;28;19926;-79
2022/01/14 18:16:06;;;;;;;;;;;;;;;0.34;100.00;101543.06;8196726;28;19927;-80
2022/01/14 18:20:08;;;;;;;;;;;;;;;0.19;100.00;101539.91;8188953;28;19926;-80
2022/01/14 18:24:09;;;;;;;;;;;;;;;0.03;100.00;101548.59;8187067;28;19947;-80
2022/01/14 18:28:12;;;;;;;;;;;;;;;0.04;100.00;101541.31;8194581;28;20030;-79
2022/01/14 18:32:15;;;;;;;;;;;;;;;-0.02;100.00;101537.28;8183584;28;19933;-80
2022/01/14 18:36:18;;;;;;;;;;;;;;;0.07;100.00;101538.31;8192636;28;19998;-81
2022/01/14 18:40:21;;;;;;;;;;;;;;;0.13;100.00;101544.03;8196837;28;19926;-80
2022/01/14 18:44:22;;;;;;;;;;;;;;;0.22;100.00;101542.34;8196256;28;19933;-79
2022/01/14 18:48:25;;;;;;;;;;;;;;;0.30;100.00;101549.75;8214469;28;19982;-79
2022/01/14 18:52:31;;;;;;;;;;;;;;;0.33;100.00;101546.78;8223523;28;19926;-79
2022/01/14 18:56:33;;;;;;;;;;;;;;;0.38;100.00;101548.06;8180536;28;19929;-79
2022/01/14 19:00:34;;;;;;;;;;;;;;;0.35;100.00;101540.19;8194536;28;19930;-81
2022/01/14 19:04:36;;;;;;;;;;;;;;;0.32;100.00;101536.91;8196805;28;19926;-79
2022/01/14 19:08:37;;;;;;;;;;;;;;;0.22;100.00;101534.19;8173282;28;19926;-79
2022/01/14 19:12:39;;;;;;;;;;;;;;;0.19;100.00;101527.19;8200445;28;19930;-80
2022/01/14 19:16:42;;;;;;;;;;;;;;;0.21;100.00;101517.09;8199620;28;19927;-79
2022/01/14 19:20:44;;;;;;;;;;;;;;;0.16;100.00;101510.38;8195279;28;20016;-79
2022/01/14 19:24:46;;;;;;;;;;;;;;;0.13;100.00;101516.06;8199426;28;19923;-79
2022/01/14 19:28:48;;;;;;;;;;;;;;;0.12;100.00;101512.50;8190416;28;19926;-80
2022/01/14 19:32:49;;;;;;;;;;;;;;;0.21;100.00;101508.09;8203366;28;19923;-80
2022/01/14 19:36:51;;;;;;;;;;;;;;;0.25;100.00;101503.25;8210793;28;19988;-79
2022/01/14 19:40:52;;;;;;;;;;;;;;;0.30;100.00;101504.53;8200268;28;19963;-79
2022/01/14 19:44:55;;;;;;;;;;;;;;;0.36;100.00;101495.84;8205478;28;20020;-80
2022/01/14 19:48:56;;;;;;;;;;;;;;;0.38;100.00;101498.38;8206585;28;20295;-80
2022/01/14 19:52:58;;;;;;;;;;;;;;;0.35;100.00;101485.09;8201425;28;20326;-80
2022/01/14 19:56:59;;;;;;;;;;;;;;;0.27;100.00;101484.97;8203698;28;19936;-81
2022/01/14 20:01:03;;;;;;;;;;;;;;;0.35;100.00;101475.13;8209376;28;19981;-79
2022/01/14 20:05:05;;;;;;;;;;;;;;;0.39;100.00;101476.56;8185175;28;19935;-79
2022/01/14 20:09:07;;;;;;;;;;;;;;;0.40;100.00;101477.41;8194369;28;19960;-79
2022/01/14 20:13:08;;;;;;;;;;;;;;;0.37;100.00;101473.13;8201046;28;19930;-80
2022/01/14 20:17:10;;;;;;;;;;;;;;;0.34;100.00;101486.97;8190925;28;19929;-79
2022/01/14 20:21:12;;;;;;;;;;;;;;;0.28;100.00;101482.13;8195939;28;19994;-78
2022/01/14 20:25:15;;;;;;;;;;;;;;;0.28;100.00;101479.41;8205489;28;20611;-79
2022/01/14 20:29:20;;;;;;;;;;;;;;;0.26;100.00;101484.09;8196433;28;20687;-79
2022/01/14 20:33:21;;;;;;;;;;;;;;;0.17;100.00;101482.25;8195772;28;19988;-79
2022/01/14 20:37:22;;;;;;;;;;;;;;;0.23;100.00;101485.25;8199604;28;19926;-79
2022/01/14 20:41:26;;;;;;;;;;;;;;;0.33;100.00;101474.44;8199107;28;19976;-78
2022/01/14 20:45:28;;;;;;;;;;;;;;;0.42;100.00;101472.72;8194254;28;19966;-80
2022/01/14 20:49:30;;;;;;;;;;;;;;;0.33;100.00;101479.84;8200285;28;19957;-80
2022/01/14 20:53:31;;;;;;;;;;;;;;;0.30;100.00;101477.41;8196832;28;19969;-79
2022/01/14 20:57:33;;;;;;;;;;;;;;;0.37;100.00;101469.56;8195326;28;19922;-80
2022/01/14 21:01:35;;;;;;;;;;;;;;;0.25;100.00;101459.88;8196566;28;20281;-79
2022/01/14 21:05:37;;;;;;;;;;;;;;;0.17;100.00;101464.13;8185246;28;20474;-78
2022/01/14 21:09:38;;;;;;;;;;;;;;;0.17;100.00;101458.69;8197101;28;20438;-78
2022/01/14 21:13:39;;;;;;;;;;;;;;;0.12;100.00;101450.16;8196800;28;20295;-79
2022/01/14 21:17:42;;;;;;;;;;;;;;;0.17;100.00;101453.28;8190144;28;19926;-79